sensor_id;sensor_type;location;lat;lon;timestamp;P1;durP1;ratioP1;P2;durP2;ratioP2
58760;SDS011;44529;47.464;19.014;2023-06-10T00:01:26;13.23;;;9.32;;
58760;SDS011;44529;47.464;19.014;2023-06-10T00:04:30;16.77;;;10.77;;
58760;SDS011;44529;47.464;19.014;2023-06-10T00:07:32;13.20;;;10.82;;
58760;SDS011;44529;47.464;19.014;2023-06-10T00:10:35;15.05;;;11.85;;
58760;SDS011;44529;47.464;19.014;2023-06-10T00:13:38;12.90;;;11.35;;
58760;SDS011;44529;47.464;19.014;2023-06-10T00:16:42;15.43;;;10.57;;
58760;SDS011;44529;47.464;19.014;2023-06-10T00:19:47;12.37;;;11.12;;
58760;SDS011;44529;47.464;19.014;2023-06-10T00:22:50;12.27;;;10.45;;
58760;SDS011;44529;47.464;19.014;2023-06-10T00:25:53;15.68;;;10.35;;
58760;SDS011;44529;47.464;19.014;2023-06-10T00:28:55;11.45;;;9.98;;
58760;SDS011;44529;47.464;19.014;2023-06-10T00:31:57;12.43;;;10.55;;
58760;SDS011;44529;47.464;19.014;2023-06-10T00:35:00;12.27;;;10.52;;
58760;SDS011;44529;47.464;19.014;2023-06-10T00:38:03;10.30;;;9.25;;
58760;SDS011;44529;47.464;19.014;2023-06-10T00:41:05;13.32;;;9.85;;
58760;SDS011;44529;47.464;19.014;2023-06-10T00:44:07;11.70;;;8.77;;
58760;SDS011;44529;47.464;19.014;2023-06-10T00:47:11;11.40;;;10.30;;
58760;SDS011;44529;47.464;19.014;2023-06-10T00:50:13;13.25;;;9.30;;
58760;SDS011;44529;47.464;19.014;2023-06-10T00:53:16;10.38;;;9.27;;
58760;SDS011;44529;47.464;19.014;2023-06-10T00:56:18;10.73;;;9.73;;
58760;SDS011;44529;47.464;19.014;2023-06-10T00:59:21;16.02;;;9.38;;
58760;SDS011;44529;47.464;19.014;2023-06-10T01:02:23;9.95;;;8.93;;
58760;SDS011;44529;47.464;19.014;2023-06-10T01:05:26;9.82;;;8.90;;
58760;SDS011;44529;47.464;19.014;2023-06-10T01:08:33;9.48;;;8.57;;
58760;SDS011;44529;47.464;19.014;2023-06-10T01:11:51;11.35;;;8.55;;
58760;SDS011;44529;47.464;19.014;2023-06-10T01:14:56;10.25;;;8.43;;
58760;SDS011;44529;47.464;19.014;2023-06-10T01:18:02;9.27;;;8.18;;
58760;SDS011;44529;47.464;19.014;2023-06-10T01:21:05;8.55;;;7.75;;
58760;SDS011;44529;47.464;19.014;2023-06-10T01:24:09;9.85;;;8.40;;
58760;SDS011;44529;47.464;19.014;2023-06-10T01:27:13;8.85;;;8.02;;
58760;SDS011;44529;47.464;19.014;2023-06-10T01:30:21;11.90;;;8.32;;
58760;SDS011;44529;47.464;19.014;2023-06-10T01:33:32;9.85;;;8.27;;
58760;SDS011;44529;47.464;19.014;2023-06-10T01:36:38;13.27;;;8.50;;
58760;SDS011;44529;47.464;19.014;2023-06-10T01:39:43;12.25;;;9.07;;
58760;SDS011;44529;47.464;19.014;2023-06-10T01:42:48;10.77;;;8.75;;
58760;SDS011;44529;47.464;19.014;2023-06-10T01:45:51;11.30;;;8.52;;
58760;SDS011;44529;47.464;19.014;2023-06-10T01:48:53;9.20;;;8.10;;
58760;SDS011;44529;47.464;19.014;2023-06-10T01:51:55;11.77;;;8.23;;
58760;SDS011;44529;47.464;19.014;2023-06-10T01:54:58;10.00;;;8.40;;
58760;SDS011;44529;47.464;19.014;2023-06-10T01:58:00;9.60;;;7.85;;
58760;SDS011;44529;47.464;19.014;2023-06-10T02:01:03;11.55;;;8.60;;
58760;SDS011;44529;47.464;19.014;2023-06-10T02:04:05;12.98;;;8.88;;
58760;SDS011;44529;47.464;19.014;2023-06-10T02:07:08;8.93;;;7.95;;
58760;SDS011;44529;47.464;19.014;2023-06-10T02:10:10;8.68;;;7.55;;
58760;SDS011;44529;47.464;19.014;2023-06-10T02:13:13;9.25;;;7.12;;
58760;SDS011;44529;47.464;19.014;2023-06-10T02:16:15;8.98;;;6.97;;
58760;SDS011;44529;47.464;19.014;2023-06-10T02:19:19;9.30;;;7.12;;
58760;SDS011;44529;47.464;19.014;2023-06-10T02:22:23;8.07;;;6.68;;
58760;SDS011;44529;47.464;19.014;2023-06-10T02:25:26;7.70;;;7.00;;
58760;SDS011;44529;47.464;19.014;2023-06-10T02:28:28;14.18;;;7.47;;
58760;SDS011;44529;47.464;19.014;2023-06-10T02:31:31;7.68;;;6.97;;
58760;SDS011;44529;47.464;19.014;2023-06-10T02:34:38;9.68;;;6.80;;
58760;SDS011;44529;47.464;19.014;2023-06-10T02:37:41;7.82;;;6.82;;
58760;SDS011;44529;47.464;19.014;2023-06-10T02:40:43;7.15;;;6.45;;
58760;SDS011;44529;47.464;19.014;2023-06-10T02:43:46;8.57;;;7.07;;
58760;SDS011;44529;47.464;19.014;2023-06-10T02:46:49;7.32;;;6.62;;
58760;SDS011;44529;47.464;19.014;2023-06-10T02:49:51;6.37;;;5.85;;
58760;SDS011;44529;47.464;19.014;2023-06-10T02:52:54;8.85;;;6.75;;
58760;SDS011;44529;47.464;19.014;2023-06-10T02:55:56;10.00;;;6.80;;
58760;SDS011;44529;47.464;19.014;2023-06-10T02:58:59;8.57;;;6.18;;
58760;SDS011;44529;47.464;19.014;2023-06-10T03:02:02;9.95;;;6.28;;
58760;SDS011;44529;47.464;19.014;2023-06-10T03:05:06;6.80;;;6.20;;
58760;SDS011;44529;47.464;19.014;2023-06-10T03:08:14;8.85;;;6.30;;
58760;SDS011;44529;47.464;19.014;2023-06-10T03:11:16;9.27;;;6.37;;
58760;SDS011;44529;47.464;19.014;2023-06-10T03:14:19;7.57;;;6.47;;
58760;SDS011;44529;47.464;19.014;2023-06-10T03:17:21;6.87;;;6.12;;
58760;SDS011;44529;47.464;19.014;2023-06-10T03:20:24;9.32;;;6.05;;
58760;SDS011;44529;47.464;19.014;2023-06-10T03:23:27;8.23;;;6.43;;
58760;SDS011;44529;47.464;19.014;2023-06-10T03:26:30;7.87;;;6.72;;
58760;SDS011;44529;47.464;19.014;2023-06-10T03:29:33;6.68;;;5.97;;
58760;SDS011;44529;47.464;19.014;2023-06-10T03:32:35;7.78;;;7.07;;
58760;SDS011;44529;47.464;19.014;2023-06-10T03:35:39;8.75;;;6.87;;
58760;SDS011;44529;47.464;19.014;2023-06-10T03:38:42;11.57;;;7.00;;
58760;SDS011;44529;47.464;19.014;2023-06-10T03:41:44;10.32;;;6.62;;
58760;SDS011;44529;47.464;19.014;2023-06-10T03:44:47;7.15;;;6.43;;
58760;SDS011;44529;47.464;19.014;2023-06-10T03:47:49;8.43;;;6.50;;
58760;SDS011;44529;47.464;19.014;2023-06-10T03:50:53;8.20;;;6.55;;
58760;SDS011;44529;47.464;19.014;2023-06-10T03:53:55;8.23;;;6.90;;
58760;SDS011;44529;47.464;19.014;2023-06-10T03:56:58;8.00;;;6.55;;
58760;SDS011;44529;47.464;19.014;2023-06-10T04:00:00;9.13;;;7.07;;
58760;SDS011;44529;47.464;19.014;2023-06-10T04:03:15;9.20;;;6.72;;
58760;SDS011;44529;47.464;19.014;2023-06-10T04:06:18;9.18;;;6.47;;
58760;SDS011;44529;47.464;19.014;2023-06-10T04:09:21;9.13;;;6.80;;
58760;SDS011;44529;47.464;19.014;2023-06-10T04:12:23;9.77;;;7.00;;
58760;SDS011;44529;47.464;19.014;2023-06-10T04:15:26;10.45;;;6.80;;
58760;SDS011;44529;47.464;19.014;2023-06-10T04:18:28;7.75;;;7.03;;
58760;SDS011;44529;47.464;19.014;2023-06-10T04:21:31;9.68;;;6.93;;
58760;SDS011;44529;47.464;19.014;2023-06-10T04:24:35;10.25;;;7.85;;
58760;SDS011;44529;47.464;19.014;2023-06-10T04:27:37;11.02;;;7.47;;
58760;SDS011;44529;47.464;19.014;2023-06-10T04:30:40;9.40;;;7.62;;
58760;SDS011;44529;47.464;19.014;2023-06-10T04:33:43;8.30;;;7.43;;
58760;SDS011;44529;47.464;19.014;2023-06-10T04:36:46;9.98;;;7.20;;
58760;SDS011;44529;47.464;19.014;2023-06-10T04:39:48;8.48;;;7.10;;
58760;SDS011;44529;47.464;19.014;2023-06-10T04:42:52;11.10;;;7.80;;
58760;SDS011;44529;47.464;19.014;2023-06-10T04:45:55;8.40;;;7.53;;
58760;SDS011;44529;47.464;19.014;2023-06-10T04:48:57;8.77;;;7.82;;
58760;SDS011;44529;47.464;19.014;2023-06-10T04:52:00;8.60;;;7.80;;
58760;SDS011;44529;47.464;19.014;2023-06-10T04:55:02;10.60;;;7.97;;
58760;SDS011;44529;47.464;19.014;2023-06-10T04:58:05;12.18;;;9.15;;
58760;SDS011;44529;47.464;19.014;2023-06-10T05:01:07;9.82;;;8.63;;
58760;SDS011;44529;47.464;19.014;2023-06-10T05:04:09;10.10;;;8.75;;
58760;SDS011;44529;47.464;19.014;2023-06-10T05:07:12;10.57;;;9.40;;
58760;SDS011;44529;47.464;19.014;2023-06-10T05:10:14;12.15;;;9.60;;
58760;SDS011;44529;47.464;19.014;2023-06-10T05:13:17;10.25;;;9.20;;
58760;SDS011;44529;47.464;19.014;2023-06-10T05:16:19;10.32;;;7.80;;
58760;SDS011;44529;47.464;19.014;2023-06-10T05:19:22;8.00;;;7.30;;
58760;SDS011;44529;47.464;19.014;2023-06-10T05:22:28;8.75;;;7.80;;
58760;SDS011;44529;47.464;19.014;2023-06-10T05:25:30;10.07;;;7.87;;
58760;SDS011;44529;47.464;19.014;2023-06-10T05:28:34;7.05;;;6.45;;
58760;SDS011;44529;47.464;19.014;2023-06-10T05:31:36;7.60;;;6.78;;
58760;SDS011;44529;47.464;19.014;2023-06-10T05:34:39;6.80;;;6.15;;
58760;SDS011;44529;47.464;19.014;2023-06-10T05:37:41;6.28;;;5.78;;
58760;SDS011;44529;47.464;19.014;2023-06-10T05:40:45;6.60;;;6.05;;
58760;SDS011;44529;47.464;19.014;2023-06-10T05:43:48;6.53;;;5.93;;
58760;SDS011;44529;47.464;19.014;2023-06-10T05:46:50;5.75;;;5.20;;
58760;SDS011;44529;47.464;19.014;2023-06-10T05:49:53;5.95;;;5.40;;
58760;SDS011;44529;47.464;19.014;2023-06-10T05:52:55;7.47;;;6.22;;
58760;SDS011;44529;47.464;19.014;2023-06-10T05:55:58;7.03;;;6.12;;
58760;SDS011;44529;47.464;19.014;2023-06-10T05:59:00;6.37;;;5.28;;
58760;SDS011;44529;47.464;19.014;2023-06-10T06:02:03;8.57;;;5.75;;
58760;SDS011;44529;47.464;19.014;2023-06-10T06:05:06;8.50;;;5.32;;
58760;SDS011;44529;47.464;19.014;2023-06-10T06:08:09;7.07;;;5.28;;
58760;SDS011;44529;47.464;19.014;2023-06-10T06:11:11;5.87;;;5.03;;
58760;SDS011;44529;47.464;19.014;2023-06-10T06:14:14;7.05;;;4.82;;
58760;SDS011;44529;47.464;19.014;2023-06-10T06:17:16;7.50;;;5.05;;
58760;SDS011;44529;47.464;19.014;2023-06-10T06:20:19;5.70;;;5.20;;
58760;SDS011;44529;47.464;19.014;2023-06-10T06:23:22;5.53;;;5.12;;
58760;SDS011;44529;47.464;19.014;2023-06-10T06:26:24;6.30;;;5.00;;
58760;SDS011;44529;47.464;19.014;2023-06-10T06:29:27;6.12;;;5.53;;
58760;SDS011;44529;47.464;19.014;2023-06-10T06:32:32;7.07;;;5.28;;
58760;SDS011;44529;47.464;19.014;2023-06-10T06:35:34;5.10;;;4.70;;
58760;SDS011;44529;47.464;19.014;2023-06-10T06:38:37;5.10;;;4.70;;
58760;SDS011;44529;47.464;19.014;2023-06-10T06:41:39;7.20;;;5.28;;
58760;SDS011;44529;47.464;19.014;2023-06-10T06:44:42;6.22;;;5.30;;
58760;SDS011;44529;47.464;19.014;2023-06-10T06:47:45;8.38;;;5.40;;
58760;SDS011;44529;47.464;19.014;2023-06-10T06:50:47;6.28;;;5.68;;
58760;SDS011;44529;47.464;19.014;2023-06-10T06:53:50;8.38;;;5.75;;
58760;SDS011;44529;47.464;19.014;2023-06-10T06:56:53;6.65;;;6.05;;
58760;SDS011;44529;47.464;19.014;2023-06-10T06:59:55;6.45;;;5.85;;
58760;SDS011;44529;47.464;19.014;2023-06-10T07:02:58;7.45;;;6.10;;
58760;SDS011;44529;47.464;19.014;2023-06-10T07:06:01;6.57;;;6.00;;
58760;SDS011;44529;47.464;19.014;2023-06-10T07:09:04;7.57;;;6.15;;
58760;SDS011;44529;47.464;19.014;2023-06-10T07:12:07;6.43;;;5.85;;
58760;SDS011;44529;47.464;19.014;2023-06-10T07:15:10;6.93;;;6.03;;
58760;SDS011;44529;47.464;19.014;2023-06-10T07:18:14;6.85;;;6.25;;
58760;SDS011;44529;47.464;19.014;2023-06-10T07:21:18;7.57;;;6.30;;
58760;SDS011;44529;47.464;19.014;2023-06-10T07:24:20;7.35;;;6.65;;
58760;SDS011;44529;47.464;19.014;2023-06-10T07:27:23;10.40;;;6.68;;
58760;SDS011;44529;47.464;19.014;2023-06-10T07:30:26;7.28;;;6.68;;
58760;SDS011;44529;47.464;19.014;2023-06-10T07:33:28;7.53;;;6.80;;
58760;SDS011;44529;47.464;19.014;2023-06-10T07:36:30;6.85;;;6.25;;
58760;SDS011;44529;47.464;19.014;2023-06-10T07:39:33;7.78;;;6.65;;
58760;SDS011;44529;47.464;19.014;2023-06-10T07:42:35;7.43;;;6.60;;
58760;SDS011;44529;47.464;19.014;2023-06-10T07:45:42;9.00;;;6.72;;
58760;SDS011;44529;47.464;19.014;2023-06-10T07:48:46;7.37;;;6.65;;
58760;SDS011;44529;47.464;19.014;2023-06-10T07:51:48;7.05;;;6.45;;
58760;SDS011;44529;47.464;19.014;2023-06-10T07:54:50;7.03;;;6.45;;
58760;SDS011;44529;47.464;19.014;2023-06-10T07:57:53;6.87;;;6.15;;
58760;SDS011;44529;47.464;19.014;2023-06-10T08:00:56;7.40;;;6.80;;
58760;SDS011;44529;47.464;19.014;2023-06-10T08:03:58;8.23;;;5.80;;
58760;SDS011;44529;47.464;19.014;2023-06-10T08:07:01;6.62;;;5.82;;
58760;SDS011;44529;47.464;19.014;2023-06-10T08:10:05;7.12;;;6.05;;
58760;SDS011;44529;47.464;19.014;2023-06-10T08:13:08;11.07;;;6.70;;
58760;SDS011;44529;47.464;19.014;2023-06-10T08:16:11;6.18;;;5.68;;
58760;SDS011;44529;47.464;19.014;2023-06-10T08:19:13;7.65;;;5.93;;
58760;SDS011;44529;47.464;19.014;2023-06-10T08:22:15;6.87;;;6.10;;
58760;SDS011;44529;47.464;19.014;2023-06-10T08:25:18;7.22;;;6.25;;
58760;SDS011;44529;47.464;19.014;2023-06-10T08:28:20;8.98;;;7.55;;
58760;SDS011;44529;47.464;19.014;2023-06-10T08:31:23;7.03;;;6.40;;
58760;SDS011;44529;47.464;19.014;2023-06-10T08:34:25;6.47;;;5.93;;
58760;SDS011;44529;47.464;19.014;2023-06-10T08:37:28;6.80;;;6.30;;
58760;SDS011;44529;47.464;19.014;2023-06-10T08:40:32;6.87;;;6.37;;
58760;SDS011;44529;47.464;19.014;2023-06-10T08:43:45;6.93;;;6.32;;
58760;SDS011;44529;47.464;19.014;2023-06-10T08:46:50;7.37;;;6.60;;
58760;SDS011;44529;47.464;19.014;2023-06-10T08:49:54;9.05;;;6.53;;
58760;SDS011;44529;47.464;19.014;2023-06-10T08:53:01;6.37;;;5.87;;
58760;SDS011;44529;47.464;19.014;2023-06-10T08:56:06;6.32;;;5.82;;
58760;SDS011;44529;47.464;19.014;2023-06-10T08:59:10;7.20;;;6.50;;
58760;SDS011;44529;47.464;19.014;2023-06-10T09:02:14;7.30;;;6.62;;
58760;SDS011;44529;47.464;19.014;2023-06-10T09:05:17;6.93;;;6.32;;
58760;SDS011;44529;47.464;19.014;2023-06-10T09:08:20;6.30;;;5.80;;
58760;SDS011;44529;47.464;19.014;2023-06-10T09:11:23;8.02;;;6.35;;
58760;SDS011;44529;47.464;19.014;2023-06-10T09:14:26;6.62;;;5.95;;
58760;SDS011;44529;47.464;19.014;2023-06-10T09:17:29;6.62;;;5.90;;
58760;SDS011;44529;47.464;19.014;2023-06-10T09:20:32;7.12;;;6.53;;
58760;SDS011;44529;47.464;19.014;2023-06-10T09:23:35;6.72;;;6.12;;
58760;SDS011;44529;47.464;19.014;2023-06-10T09:26:38;6.53;;;5.95;;
58760;SDS011;44529;47.464;19.014;2023-06-10T09:29:48;6.80;;;6.20;;
58760;SDS011;44529;47.464;19.014;2023-06-10T09:32:58;6.95;;;6.20;;
58760;SDS011;44529;47.464;19.014;2023-06-10T09:36:02;7.72;;;7.00;;
58760;SDS011;44529;47.464;19.014;2023-06-10T09:39:05;7.60;;;7.00;;
58760;SDS011;44529;47.464;19.014;2023-06-10T09:42:17;7.53;;;6.93;;
58760;SDS011;44529;47.464;19.014;2023-06-10T09:45:21;7.65;;;6.95;;
58760;SDS011;44529;47.464;19.014;2023-06-10T09:48:24;7.62;;;6.80;;
58760;SDS011;44529;47.464;19.014;2023-06-10T09:51:27;7.60;;;6.80;;
58760;SDS011;44529;47.464;19.014;2023-06-10T09:54:31;8.15;;;7.35;;
58760;SDS011;44529;47.464;19.014;2023-06-10T09:57:33;8.05;;;7.18;;
58760;SDS011;44529;47.464;19.014;2023-06-10T10:00:38;8.40;;;7.60;;
58760;SDS011;44529;47.464;19.014;2023-06-10T10:03:47;9.65;;;8.75;;
58760;SDS011;44529;47.464;19.014;2023-06-10T10:06:52;8.93;;;8.02;;
58760;SDS011;44529;47.464;19.014;2023-06-10T10:09:55;9.48;;;8.60;;
58760;SDS011;44529;47.464;19.014;2023-06-10T10:12:57;10.20;;;9.13;;
58760;SDS011;44529;47.464;19.014;2023-06-10T10:16:09;12.20;;;11.10;;
58760;SDS011;44529;47.464;19.014;2023-06-10T10:19:16;12.80;;;11.55;;
58760;SDS011;44529;47.464;19.014;2023-06-10T10:22:26;14.50;;;13.00;;
58760;SDS011;44529;47.464;19.014;2023-06-10T10:25:35;14.27;;;12.98;;
58760;SDS011;44529;47.464;19.014;2023-06-10T10:28:45;14.30;;;11.63;;
58760;SDS011;44529;47.464;19.014;2023-06-10T10:31:53;13.93;;;12.73;;
58760;SDS011;44529;47.464;19.014;2023-06-10T10:35:08;13.40;;;12.10;;
58760;SDS011;44529;47.464;19.014;2023-06-10T10:38:14;13.68;;;12.37;;
58760;SDS011;44529;47.464;19.014;2023-06-10T10:41:18;11.60;;;10.63;;
58760;SDS011;44529;47.464;19.014;2023-06-10T10:44:22;12.48;;;11.27;;
58760;SDS011;44529;47.464;19.014;2023-06-10T10:47:27;13.35;;;12.13;;
58760;SDS011;44529;47.464;19.014;2023-06-10T10:50:31;12.60;;;11.38;;
58760;SDS011;44529;47.464;19.014;2023-06-10T10:53:33;12.73;;;11.50;;
58760;SDS011;44529;47.464;19.014;2023-06-10T10:56:36;12.55;;;11.35;;
58760;SDS011;44529;47.464;19.014;2023-06-10T10:59:51;11.57;;;10.57;;
58760;SDS011;44529;47.464;19.014;2023-06-10T11:06:13;11.20;;;10.23;;
58760;SDS011;44529;47.464;19.014;2023-06-10T11:09:26;12.02;;;10.82;;
58760;SDS011;44529;47.464;19.014;2023-06-10T11:15:58;11.32;;;10.23;;
58760;SDS011;44529;47.464;19.014;2023-06-10T11:19:01;8.93;;;8.13;;
58760;SDS011;44529;47.464;19.014;2023-06-10T11:22:05;9.35;;;8.55;;
58760;SDS011;44529;47.464;19.014;2023-06-10T11:25:13;10.45;;;9.55;;
58760;SDS011;44529;47.464;19.014;2023-06-10T11:28:19;11.23;;;10.32;;
58760;SDS011;44529;47.464;19.014;2023-06-10T11:31:26;11.23;;;10.32;;
58760;SDS011;44529;47.464;19.014;2023-06-10T11:34:29;12.63;;;11.40;;
58760;SDS011;44529;47.464;19.014;2023-06-10T11:37:32;12.90;;;11.12;;
58760;SDS011;44529;47.464;19.014;2023-06-10T11:40:34;12.85;;;11.75;;
58760;SDS011;44529;47.464;19.014;2023-06-10T11:43:45;12.13;;;11.23;;
58760;SDS011;44529;47.464;19.014;2023-06-10T11:46:48;12.32;;;11.32;;
58760;SDS011;44529;47.464;19.014;2023-06-10T11:50:00;11.63;;;10.73;;
58760;SDS011;44529;47.464;19.014;2023-06-10T11:53:03;12.02;;;10.55;;
58760;SDS011;44529;47.464;19.014;2023-06-10T11:56:05;12.75;;;11.73;;
58760;SDS011;44529;47.464;19.014;2023-06-10T11:59:08;11.18;;;10.15;;
58760;SDS011;44529;47.464;19.014;2023-06-10T12:02:17;11.73;;;10.82;;
58760;SDS011;44529;47.464;19.014;2023-06-10T12:05:21;11.12;;;10.23;;
58760;SDS011;44529;47.464;19.014;2023-06-10T12:08:24;12.00;;;11.00;;
58760;SDS011;44529;47.464;19.014;2023-06-10T12:11:27;12.65;;;11.57;;
58760;SDS011;44529;47.464;19.014;2023-06-10T12:18:02;11.68;;;10.57;;
58760;SDS011;44529;47.464;19.014;2023-06-10T12:21:14;12.52;;;11.43;;
58760;SDS011;44529;47.464;19.014;2023-06-10T12:24:18;11.40;;;10.55;;
58760;SDS011;44529;47.464;19.014;2023-06-10T12:27:21;10.43;;;9.63;;
58760;SDS011;44529;47.464;19.014;2023-06-10T12:30:24;8.25;;;7.47;;
58760;SDS011;44529;47.464;19.014;2023-06-10T12:33:30;8.07;;;7.30;;
58760;SDS011;44529;47.464;19.014;2023-06-10T12:36:33;5.95;;;5.45;;
58760;SDS011;44529;47.464;19.014;2023-06-10T12:39:36;5.78;;;5.28;;
58760;SDS011;44529;47.464;19.014;2023-06-10T12:42:38;6.30;;;5.90;;
58760;SDS011;44529;47.464;19.014;2023-06-10T12:45:42;6.95;;;6.45;;
58760;SDS011;44529;47.464;19.014;2023-06-10T12:48:50;6.75;;;6.22;;
58760;SDS011;44529;47.464;19.014;2023-06-10T12:51:53;6.60;;;6.20;;
58760;SDS011;44529;47.464;19.014;2023-06-10T12:54:56;5.90;;;5.40;;
58760;SDS011;44529;47.464;19.014;2023-06-10T12:57:59;5.53;;;5.22;;
58760;SDS011;44529;47.464;19.014;2023-06-10T13:01:03;5.22;;;4.82;;
58760;SDS011;44529;47.464;19.014;2023-06-10T13:04:06;5.37;;;5.00;;
58760;SDS011;44529;47.464;19.014;2023-06-10T13:07:09;5.80;;;5.20;;
58760;SDS011;44529;47.464;19.014;2023-06-10T13:10:15;6.68;;;4.97;;
58760;SDS011;44529;47.464;19.014;2023-06-10T13:13:19;5.18;;;4.72;;
58760;SDS011;44529;47.464;19.014;2023-06-10T13:16:21;4.47;;;4.18;;
58760;SDS011;44529;47.464;19.014;2023-06-10T13:19:23;4.12;;;3.85;;
58760;SDS011;44529;47.464;19.014;2023-06-10T13:22:29;3.90;;;3.60;;
58760;SDS011;44529;47.464;19.014;2023-06-10T13:25:32;4.35;;;3.95;;
58760;SDS011;44529;47.464;19.014;2023-06-10T13:28:34;3.78;;;3.45;;
58760;SDS011;44529;47.464;19.014;2023-06-10T13:31:37;4.82;;;3.47;;
58760;SDS011;44529;47.464;19.014;2023-06-10T13:34:39;3.50;;;3.20;;
58760;SDS011;44529;47.464;19.014;2023-06-10T13:37:42;3.72;;;3.30;;
58760;SDS011;44529;47.464;19.014;2023-06-10T13:40:44;3.62;;;3.33;;
58760;SDS011;44529;47.464;19.014;2023-06-10T13:43:47;3.30;;;3.10;;
58760;SDS011;44529;47.464;19.014;2023-06-10T13:46:49;3.30;;;3.10;;
58760;SDS011;44529;47.464;19.014;2023-06-10T13:49:52;3.30;;;3.10;;
58760;SDS011;44529;47.464;19.014;2023-06-10T13:52:54;3.67;;;3.35;;
58760;SDS011;44529;47.464;19.014;2023-06-10T13:55:57;3.55;;;3.35;;
58760;SDS011;44529;47.464;19.014;2023-06-10T13:58:59;4.03;;;3.65;;
58760;SDS011;44529;47.464;19.014;2023-06-10T14:02:05;4.03;;;3.70;;
58760;SDS011;44529;47.464;19.014;2023-06-10T14:05:08;3.97;;;3.67;;
58760;SDS011;44529;47.464;19.014;2023-06-10T14:08:11;4.40;;;4.10;;
58760;SDS011;44529;47.464;19.014;2023-06-10T14:11:14;4.75;;;4.15;;
58760;SDS011;44529;47.464;19.014;2023-06-10T14:14:16;4.53;;;4.22;;
58760;SDS011;44529;47.464;19.014;2023-06-10T14:17:19;4.25;;;3.95;;
58760;SDS011;44529;47.464;19.014;2023-06-10T14:20:21;6.25;;;4.50;;
58760;SDS011;44529;47.464;19.014;2023-06-10T14:23:27;4.80;;;4.37;;
58760;SDS011;44529;47.464;19.014;2023-06-10T14:26:29;4.43;;;4.12;;
58760;SDS011;44529;47.464;19.014;2023-06-10T14:29:33;4.18;;;3.80;;
58760;SDS011;44529;47.464;19.014;2023-06-10T14:32:35;3.75;;;3.50;;
58760;SDS011;44529;47.464;19.014;2023-06-10T14:35:38;3.72;;;3.42;;
58760;SDS011;44529;47.464;19.014;2023-06-10T14:38:40;4.60;;;4.18;;
58760;SDS011;44529;47.464;19.014;2023-06-10T14:41:43;3.78;;;3.47;;
58760;SDS011;44529;47.464;19.014;2023-06-10T14:44:45;3.95;;;3.65;;
58760;SDS011;44529;47.464;19.014;2023-06-10T14:47:47;3.95;;;3.65;;
58760;SDS011;44529;47.464;19.014;2023-06-10T14:50:50;3.33;;;3.10;;
58760;SDS011;44529;47.464;19.014;2023-06-10T14:53:53;3.53;;;3.28;;
58760;SDS011;44529;47.464;19.014;2023-06-10T14:56:55;3.78;;;3.35;;
58760;SDS011;44529;47.464;19.014;2023-06-10T14:59:58;3.90;;;3.60;;
58760;SDS011;44529;47.464;19.014;2023-06-10T15:03:00;3.78;;;3.47;;
58760;SDS011;44529;47.464;19.014;2023-06-10T15:06:02;3.47;;;3.17;;
58760;SDS011;44529;47.464;19.014;2023-06-10T15:09:05;5.43;;;4.20;;
58760;SDS011;44529;47.464;19.014;2023-06-10T15:12:07;3.80;;;3.50;;
58760;SDS011;44529;47.464;19.014;2023-06-10T15:15:10;4.12;;;3.67;;
58760;SDS011;44529;47.464;19.014;2023-06-10T15:18:13;4.20;;;3.72;;
58760;SDS011;44529;47.464;19.014;2023-06-10T15:21:15;4.35;;;3.60;;
58760;SDS011;44529;47.464;19.014;2023-06-10T15:24:18;5.80;;;3.90;;
58760;SDS011;44529;47.464;19.014;2023-06-10T15:27:20;4.82;;;4.05;;
58760;SDS011;44529;47.464;19.014;2023-06-10T15:30:23;4.03;;;3.58;;
58760;SDS011;44529;47.464;19.014;2023-06-10T15:33:25;3.92;;;3.53;;
58760;SDS011;44529;47.464;19.014;2023-06-10T15:36:28;3.95;;;3.65;;
58760;SDS011;44529;47.464;19.014;2023-06-10T15:39:30;4.40;;;3.10;;
58760;SDS011;44529;47.464;19.014;2023-06-10T15:42:33;3.70;;;3.40;;
58760;SDS011;44529;47.464;19.014;2023-06-10T15:45:35;4.18;;;3.40;;
58760;SDS011;44529;47.464;19.014;2023-06-10T15:48:38;3.92;;;3.62;;
58760;SDS011;44529;47.464;19.014;2023-06-10T15:51:40;4.43;;;3.67;;
58760;SDS011;44529;47.464;19.014;2023-06-10T15:54:50;3.22;;;3.03;;
58760;SDS011;44529;47.464;19.014;2023-06-10T15:57:52;3.17;;;2.97;;
58760;SDS011;44529;47.464;19.014;2023-06-10T16:00:55;3.50;;;3.20;;
58760;SDS011;44529;47.464;19.014;2023-06-10T16:03:57;3.40;;;3.20;;
58760;SDS011;44529;47.464;19.014;2023-06-10T16:06:59;3.55;;;3.25;;
58760;SDS011;44529;47.464;19.014;2023-06-10T16:10:02;3.78;;;3.28;;
58760;SDS011;44529;47.464;19.014;2023-06-10T16:13:04;4.65;;;3.12;;
58760;SDS011;44529;47.464;19.014;2023-06-10T16:16:07;3.00;;;2.80;;
58760;SDS011;44529;47.464;19.014;2023-06-10T16:19:09;3.70;;;3.40;;
58760;SDS011;44529;47.464;19.014;2023-06-10T16:22:12;3.90;;;3.60;;
58760;SDS011;44529;47.464;19.014;2023-06-10T16:25:14;6.43;;;3.55;;
58760;SDS011;44529;47.464;19.014;2023-06-10T16:28:17;5.82;;;3.40;;
58760;SDS011;44529;47.464;19.014;2023-06-10T16:31:19;4.50;;;3.75;;
58760;SDS011;44529;47.464;19.014;2023-06-10T16:34:22;3.70;;;3.40;;
58760;SDS011;44529;47.464;19.014;2023-06-10T16:37:24;5.05;;;3.78;;
58760;SDS011;44529;47.464;19.014;2023-06-10T16:40:27;4.35;;;3.70;;
58760;SDS011;44529;47.464;19.014;2023-06-10T16:43:29;4.28;;;3.85;;
58760;SDS011;44529;47.464;19.014;2023-06-10T16:46:32;3.92;;;3.62;;
58760;SDS011;44529;47.464;19.014;2023-06-10T16:49:34;4.05;;;3.75;;
58760;SDS011;44529;47.464;19.014;2023-06-10T16:52:38;5.25;;;3.60;;
58760;SDS011;44529;47.464;19.014;2023-06-10T16:55:40;4.53;;;3.60;;
58760;SDS011;44529;47.464;19.014;2023-06-10T16:58:43;3.55;;;3.25;;
58760;SDS011;44529;47.464;19.014;2023-06-10T17:01:45;4.75;;;3.35;;
58760;SDS011;44529;47.464;19.014;2023-06-10T17:04:48;4.62;;;3.95;;
58760;SDS011;44529;47.464;19.014;2023-06-10T17:07:50;4.05;;;3.70;;
58760;SDS011;44529;47.464;19.014;2023-06-10T17:10:53;3.58;;;3.28;;
58760;SDS011;44529;47.464;19.014;2023-06-10T17:13:55;4.70;;;3.78;;
58760;SDS011;44529;47.464;19.014;2023-06-10T17:16:58;3.87;;;3.58;;
58760;SDS011;44529;47.464;19.014;2023-06-10T17:20:01;4.15;;;3.78;;
58760;SDS011;44529;47.464;19.014;2023-06-10T17:23:04;4.00;;;3.70;;
58760;SDS011;44529;47.464;19.014;2023-06-10T17:26:08;3.80;;;3.50;;
58760;SDS011;44529;47.464;19.014;2023-06-10T17:29:10;4.28;;;3.53;;
58760;SDS011;44529;47.464;19.014;2023-06-10T17:32:12;3.30;;;3.10;;
58760;SDS011;44529;47.464;19.014;2023-06-10T17:35:15;3.67;;;3.47;;
58760;SDS011;44529;47.464;19.014;2023-06-10T17:38:17;3.97;;;3.67;;
58760;SDS011;44529;47.464;19.014;2023-06-10T17:41:22;5.12;;;3.35;;
58760;SDS011;44529;47.464;19.014;2023-06-10T17:44:24;3.85;;;3.55;;
58760;SDS011;44529;47.464;19.014;2023-06-10T17:47:27;4.65;;;3.92;;
58760;SDS011;44529;47.464;19.014;2023-06-10T17:50:29;4.05;;;3.65;;
58760;SDS011;44529;47.464;19.014;2023-06-10T17:53:31;5.15;;;3.80;;
58760;SDS011;44529;47.464;19.014;2023-06-10T17:56:34;4.68;;;4.10;;
58760;SDS011;44529;47.464;19.014;2023-06-10T17:59:36;3.92;;;3.58;;
58760;SDS011;44529;47.464;19.014;2023-06-10T18:02:39;4.15;;;3.75;;
58760;SDS011;44529;47.464;19.014;2023-06-10T18:05:41;4.62;;;4.05;;
58760;SDS011;44529;47.464;19.014;2023-06-10T18:08:43;5.90;;;3.75;;
58760;SDS011;44529;47.464;19.014;2023-06-10T18:11:46;4.37;;;3.80;;